sensor_id;sensor_type;location;lat;lon;timestamp;temperature;humidity
13251;DHT22;6692;50.710;7.180;2023-04-01T00:01:17;12.10;99.90
13251;DHT22;6692;50.710;7.180;2023-04-01T00:03:18;12.00;99.90
13251;DHT22;6692;50.710;7.180;2023-04-01T00:05:18;12.00;99.90
13251;DHT22;6692;50.710;7.180;2023-04-01T00:07:19;12.00;99.90
13251;DHT22;6692;50.710;7.180;2023-04-01T00:09:20;12.00;99.90
13251;DHT22;6692;50.710;7.180;2023-04-01T00:11:20;12.00;99.90
13251;DHT22;6692;50.710;7.180;2023-04-01T00:13:22;12.00;99.90
13251;DHT22;6692;50.710;7.180;2023-04-01T00:15:23;11.90;99.90
13251;DHT22;6692;50.710;7.180;2023-04-01T00:17:24;11.90;99.90
13251;DHT22;6692;50.710;7.180;2023-04-01T00:19:25;11.90;99.90
13251;DHT22;6692;50.710;7.180;2023-04-01T00:21:25;11.90;99.90
13251;DHT22;6692;50.710;7.180;2023-04-01T00:23:26;11.90;99.90
13251;DHT22;6692;50.710;7.180;2023-04-01T00:25:27;11.90;99.90
13251;DHT22;6692;50.710;7.180;2023-04-01T00:27:28;11.90;99.90
13251;DHT22;6692;50.710;7.180;2023-04-01T00:29:29;11.90;99.90
13251;DHT22;6692;50.710;7.180;2023-04-01T00:31:30;11.90;99.90
13251;DHT22;6692;50.710;7.180;2023-04-01T00:33:30;11.90;99.90
13251;DHT22;6692;50.710;7.180;2023-04-01T00:35:31;11.90;99.90
13251;DHT22;6692;50.710;7.180;2023-04-01T00:37:34;11.90;99.90
13251;DHT22;6692;50.710;7.180;2023-04-01T00:39:34;11.90;99.90
13251;DHT22;6692;50.710;7.180;2023-04-01T00:41:34;11.90;99.90
13251;DHT22;6692;50.710;7.180;2023-04-01T00:43:35;11.90;99.90
13251;DHT22;6692;50.710;7.180;2023-04-01T00:45:36;11.90;99.90
13251;DHT22;6692;50.710;7.180;2023-04-01T00:47:36;11.90;99.90
13251;DHT22;6692;50.710;7.180;2023-04-01T00:49:38;11.90;99.90
13251;DHT22;6692;50.710;7.180;2023-04-01T00:51:37;11.90;99.90
13251;DHT22;6692;50.710;7.180;2023-04-01T00:53:40;11.90;99.90
13251;DHT22;6692;50.710;7.180;2023-04-01T00:55:40;11.90;99.90
13251;DHT22;6692;50.710;7.180;2023-04-01T00:57:39;11.90;99.90
13251;DHT22;6692;50.710;7.180;2023-04-01T00:59:41;11.90;99.90
13251;DHT22;6692;50.710;7.180;2023-04-01T01:01:41;11.90;99.90
13251;DHT22;6692;50.710;7.180;2023-04-01T01:03:41;11.90;99.90
13251;DHT22;6692;50.710;7.180;2023-04-01T01:05:54;11.90;99.90
13251;DHT22;6692;50.710;7.180;2023-04-01T01:08:01;11.90;99.90
13251;DHT22;6692;50.710;7.180;2023-04-01T01:10:02;11.90;99.90
13251;DHT22;6692;50.710;7.180;2023-04-01T01:12:13;11.90;99.90
13251;DHT22;6692;50.710;7.180;2023-04-01T01:14:21;11.90;99.90
13251;DHT22;6692;50.710;7.180;2023-04-01T01:16:23;11.90;99.90
13251;DHT22;6692;50.710;7.180;2023-04-01T01:18:31;11.80;99.90
13251;DHT22;6692;50.710;7.180;2023-04-01T01:20:48;11.80;99.90
13251;DHT22;6692;50.710;7.180;2023-04-01T01:25:02;11.80;99.90
13251;DHT22;6692;50.710;7.180;2023-04-01T01:27:01;11.80;99.90
13251;DHT22;6692;50.710;7.180;2023-04-01T01:29:13;11.80;99.90
13251;DHT22;6692;50.710;7.180;2023-04-01T01:31:20;11.80;99.90
13251;DHT22;6692;50.710;7.180;2023-04-01T01:33:25;11.80;99.90
13251;DHT22;6692;50.710;7.180;2023-04-01T01:37:49;11.80;99.90
13251;DHT22;6692;50.710;7.180;2023-04-01T01:39:50;11.70;99.90
13251;DHT22;6692;50.710;7.180;2023-04-01T01:41:50;11.70;99.90
13251;DHT22;6692;50.710;7.180;2023-04-01T01:43:51;11.70;99.90
13251;DHT22;6692;50.710;7.180;2023-04-01T01:45:53;11.70;99.90
13251;DHT22;6692;50.710;7.180;2023-04-01T01:47:53;11.70;99.90
13251;DHT22;6692;50.710;7.180;2023-04-01T01:49:54;11.70;99.90
13251;DHT22;6692;50.710;7.180;2023-04-01T01:51:55;11.70;99.90
13251;DHT22;6692;50.710;7.180;2023-04-01T01:53:55;11.70;99.90
13251;DHT22;6692;50.710;7.180;2023-04-01T01:55:56;11.70;99.90
13251;DHT22;6692;50.710;7.180;2023-04-01T01:57:58;11.70;99.90
13251;DHT22;6692;50.710;7.180;2023-04-01T02:00:00;11.70;99.90
13251;DHT22;6692;50.710;7.180;2023-04-01T02:01:59;11.70;99.90
13251;DHT22;6692;50.710;7.180;2023-04-01T02:04:00;11.70;99.90
13251;DHT22;6692;50.710;7.180;2023-04-01T02:06:01;11.70;99.90
13251;DHT22;6692;50.710;7.180;2023-04-01T02:08:16;11.70;99.90
13251;DHT22;6692;50.710;7.180;2023-04-01T02:10:17;11.70;99.90
13251;DHT22;6692;50.710;7.180;2023-04-01T02:12:17;11.70;99.90
13251;DHT22;6692;50.710;7.180;2023-04-01T02:14:21;11.70;99.90
13251;DHT22;6692;50.710;7.180;2023-04-01T02:16:23;11.70;99.90
13251;DHT22;6692;50.710;7.180;2023-04-01T02:18:21;11.70;99.90
13251;DHT22;6692;50.710;7.180;2023-04-01T02:20:22;11.70;99.90
13251;DHT22;6692;50.710;7.180;2023-04-01T02:22:23;11.70;99.90
13251;DHT22;6692;50.710;7.180;2023-04-01T02:24:23;11.70;99.90
13251;DHT22;6692;50.710;7.180;2023-04-01T02:26:24;11.70;99.90
13251;DHT22;6692;50.710;7.180;2023-04-01T02:28:25;11.70;99.90
13251;DHT22;6692;50.710;7.180;2023-04-01T02:30:27;11.70;99.90
13251;DHT22;6692;50.710;7.180;2023-04-01T02:32:28;11.70;99.90
13251;DHT22;6692;50.710;7.180;2023-04-01T02:34:29;11.70;99.90
13251;DHT22;6692;50.710;7.180;2023-04-01T02:36:31;11.60;99.90
13251;DHT22;6692;50.710;7.180;2023-04-01T02:38:31;11.60;99.90
13251;DHT22;6692;50.710;7.180;2023-04-01T02:40:41;11.50;99.90
13251;DHT22;6692;50.710;7.180;2023-04-01T02:42:40;11.40;99.90
13251;DHT22;6692;50.710;7.180;2023-04-01T02:44:41;11.30;99.90
13251;DHT22;6692;50.710;7.180;2023-04-01T02:46:42;11.30;99.90
13251;DHT22;6692;50.710;7.180;2023-04-01T02:48:42;11.20;99.90
13251;DHT22;6692;50.710;7.180;2023-04-01T02:50:44;11.00;99.90
13251;DHT22;6692;50.710;7.180;2023-04-01T02:52:45;11.00;99.90
13251;DHT22;6692;50.710;7.180;2023-04-01T02:54:45;11.00;99.90
13251;DHT22;6692;50.710;7.180;2023-04-01T02:56:46;10.90;99.90
13251;DHT22;6692;50.710;7.180;2023-04-01T02:58:47;10.90;99.90
13251;DHT22;6692;50.710;7.180;2023-04-01T03:00:47;10.80;99.90
13251;DHT22;6692;50.710;7.180;2023-04-01T03:02:49;10.80;99.90
13251;DHT22;6692;50.710;7.180;2023-04-01T03:04:49;10.80;99.90
13251;DHT22;6692;50.710;7.180;2023-04-01T03:06:50;10.70;99.90
13251;DHT22;6692;50.710;7.180;2023-04-01T03:08:51;10.70;99.90
13251;DHT22;6692;50.710;7.180;2023-04-01T03:10:52;10.60;99.90
13251;DHT22;6692;50.710;7.180;2023-04-01T03:12:53;10.60;99.90
13251;DHT22;6692;50.710;7.180;2023-04-01T03:14:54;10.60;99.90
13251;DHT22;6692;50.710;7.180;2023-04-01T03:16:54;10.60;99.90
13251;DHT22;6692;50.710;7.180;2023-04-01T03:18:56;10.60;99.90
13251;DHT22;6692;50.710;7.180;2023-04-01T03:20:57;10.50;99.90
13251;DHT22;6692;50.710;7.180;2023-04-01T03:22:57;10.50;99.90
13251;DHT22;6692;50.710;7.180;2023-04-01T03:24:58;10.60;99.90
13251;DHT22;6692;50.710;7.180;2023-04-01T03:26:59;10.50;99.90
13251;DHT22;6692;50.710;7.180;2023-04-01T03:28:59;10.50;99.90
13251;DHT22;6692;50.710;7.180;2023-04-01T03:31:00;10.50;99.90
13251;DHT22;6692;50.710;7.180;2023-04-01T03:33:01;10.50;99.90
13251;DHT22;6692;50.710;7.180;2023-04-01T03:35:02;10.50;99.90
13251;DHT22;6692;50.710;7.180;2023-04-01T03:37:03;10.50;99.90
13251;DHT22;6692;50.710;7.180;2023-04-01T03:39:04;10.50;99.90
13251;DHT22;6692;50.710;7.180;2023-04-01T03:41:05;10.50;99.90
13251;DHT22;6692;50.710;7.180;2023-04-01T03:43:06;10.50;99.90
13251;DHT22;6692;50.710;7.180;2023-04-01T03:45:07;10.50;99.90
13251;DHT22;6692;50.710;7.180;2023-04-01T03:47:08;10.50;99.90
13251;DHT22;6692;50.710;7.180;2023-04-01T03:49:09;10.50;99.90
13251;DHT22;6692;50.710;7.180;2023-04-01T03:51:10;10.50;99.90
13251;DHT22;6692;50.710;7.180;2023-04-01T03:53:11;10.40;99.90
13251;DHT22;6692;50.710;7.180;2023-04-01T03:55:13;10.40;99.90
13251;DHT22;6692;50.710;7.180;2023-04-01T03:57:14;10.40;99.90
13251;DHT22;6692;50.710;7.180;2023-04-01T03:59:15;10.40;99.90
13251;DHT22;6692;50.710;7.180;2023-04-01T04:01:18;10.40;99.90
13251;DHT22;6692;50.710;7.180;2023-04-01T04:03:18;10.40;99.90
13251;DHT22;6692;50.710;7.180;2023-04-01T04:05:19;10.40;99.90
13251;DHT22;6692;50.710;7.180;2023-04-01T04:07:19;10.40;99.90
13251;DHT22;6692;50.710;7.180;2023-04-01T04:09:20;10.40;99.90
13251;DHT22;6692;50.710;7.180;2023-04-01T04:11:21;10.30;99.90
13251;DHT22;6692;50.710;7.180;2023-04-01T04:13:22;10.30;99.90
13251;DHT22;6692;50.710;7.180;2023-04-01T04:15:23;10.30;99.90
13251;DHT22;6692;50.710;7.180;2023-04-01T04:17:24;10.30;99.90
13251;DHT22;6692;50.710;7.180;2023-04-01T04:19:25;10.30;99.90
13251;DHT22;6692;50.710;7.180;2023-04-01T04:21:26;10.30;99.90
13251;DHT22;6692;50.710;7.180;2023-04-01T04:23:27;10.30;99.90
13251;DHT22;6692;50.710;7.180;2023-04-01T04:25:28;10.30;99.90
13251;DHT22;6692;50.710;7.180;2023-04-01T04:27:28;10.30;99.90
13251;DHT22;6692;50.710;7.180;2023-04-01T04:29:29;10.30;99.90
13251;DHT22;6692;50.710;7.180;2023-04-01T04:31:30;10.40;99.90
13251;DHT22;6692;50.710;7.180;2023-04-01T04:33:30;10.40;99.90
13251;DHT22;6692;50.710;7.180;2023-04-01T04:35:31;10.30;99.90
13251;DHT22;6692;50.710;7.180;2023-04-01T04:37:32;10.30;99.90
13251;DHT22;6692;50.710;7.180;2023-04-01T04:39:32;10.30;99.90
13251;DHT22;6692;50.710;7.180;2023-04-01T04:41:36;10.30;99.90
13251;DHT22;6692;50.710;7.180;2023-04-01T04:43:35;10.30;99.90
13251;DHT22;6692;50.710;7.180;2023-04-01T04:45:36;10.40;99.90
13251;DHT22;6692;50.710;7.180;2023-04-01T04:47:37;10.40;99.90
13251;DHT22;6692;50.710;7.180;2023-04-01T04:49:38;10.40;99.90
13251;DHT22;6692;50.710;7.180;2023-04-01T04:51:39;10.40;99.90
13251;DHT22;6692;50.710;7.180;2023-04-01T04:53:40;10.40;99.90
13251;DHT22;6692;50.710;7.180;2023-04-01T04:55:44;10.40;99.90
13251;DHT22;6692;50.710;7.180;2023-04-01T04:57:45;10.40;99.90
13251;DHT22;6692;50.710;7.180;2023-04-01T04:59:45;10.40;99.90
13251;DHT22;6692;50.710;7.180;2023-04-01T05:01:47;10.30;99.90
13251;DHT22;6692;50.710;7.180;2023-04-01T05:03:47;10.30;99.90
13251;DHT22;6692;50.710;7.180;2023-04-01T05:05:50;10.30;99.90
13251;DHT22;6692;50.710;7.180;2023-04-01T05:07:49;10.30;99.90
13251;DHT22;6692;50.710;7.180;2023-04-01T05:09:50;10.30;99.90
13251;DHT22;6692;50.710;7.180;2023-04-01T05:11:51;10.30;99.90
13251;DHT22;6692;50.710;7.180;2023-04-01T05:13:52;10.30;99.90
13251;DHT22;6692;50.710;7.180;2023-04-01T05:15:52;10.30;99.90
13251;DHT22;6692;50.710;7.180;2023-04-01T05:17:53;10.30;99.90
13251;DHT22;6692;50.710;7.180;2023-04-01T05:19:54;10.30;99.90
13251;DHT22;6692;50.710;7.180;2023-04-01T05:21:55;10.30;99.90
13251;DHT22;6692;50.710;7.180;2023-04-01T05:23:56;10.30;99.90
13251;DHT22;6692;50.710;7.180;2023-04-01T05:25:57;10.30;99.90
13251;DHT22;6692;50.710;7.180;2023-04-01T05:27:58;10.30;99.90
13251;DHT22;6692;50.710;7.180;2023-04-01T05:29:59;10.40;99.90
13251;DHT22;6692;50.710;7.180;2023-04-01T05:32:00;10.30;99.90
13251;DHT22;6692;50.710;7.180;2023-04-01T05:34:01;10.40;99.90
13251;DHT22;6692;50.710;7.180;2023-04-01T05:36:09;10.40;99.90
13251;DHT22;6692;50.710;7.180;2023-04-01T05:38:08;10.40;99.90
13251;DHT22;6692;50.710;7.180;2023-04-01T05:40:10;10.40;99.90
13251;DHT22;6692;50.710;7.180;2023-04-01T05:42:11;10.40;99.90
13251;DHT22;6692;50.710;7.180;2023-04-01T05:44:12;10.40;99.90
13251;DHT22;6692;50.710;7.180;2023-04-01T05:46:13;10.40;99.90
13251;DHT22;6692;50.710;7.180;2023-04-01T05:48:14;10.40;99.90
13251;DHT22;6692;50.710;7.180;2023-04-01T05:50:15;10.40;99.90
13251;DHT22;6692;50.710;7.180;2023-04-01T05:52:15;10.40;99.90
13251;DHT22;6692;50.710;7.180;2023-04-01T05:54:17;10.40;99.90
13251;DHT22;6692;50.710;7.180;2023-04-01T05:56:18;10.40;99.90
13251;DHT22;6692;50.710;7.180;2023-04-01T05:58:18;10.40;99.90
13251;DHT22;6692;50.710;7.180;2023-04-01T06:00:19;10.40;99.90
13251;DHT22;6692;50.710;7.180;2023-04-01T06:02:20;10.40;99.90
13251;DHT22;6692;50.710;7.180;2023-04-01T06:04:21;10.40;99.90
13251;DHT22;6692;50.710;7.180;2023-04-01T06:06:26;10.40;99.90
13251;DHT22;6692;50.710;7.180;2023-04-01T06:08:26;10.40;99.90
13251;DHT22;6692;50.710;7.180;2023-04-01T06:10:37;10.40;99.90
13251;DHT22;6692;50.710;7.180;2023-04-01T06:13:03;10.40;99.90
13251;DHT22;6692;50.710;7.180;2023-04-01T06:15:25;10.40;99.90
13251;DHT22;6692;50.710;7.180;2023-04-01T06:17:46;10.50;99.90
13251;DHT22;6692;50.710;7.180;2023-04-01T06:19:55;10.50;99.90
13251;DHT22;6692;50.710;7.180;2023-04-01T06:22:02;10.50;99.90
13251;DHT22;6692;50.710;7.180;2023-04-01T06:24:05;10.50;99.90
13251;DHT22;6692;50.710;7.180;2023-04-01T06:26:24;10.60;99.90
13251;DHT22;6692;50.710;7.180;2023-04-01T06:28:36;10.60;99.90
13251;DHT22;6692;50.710;7.180;2023-04-01T06:30:34;10.70;99.90
13251;DHT22;6692;50.710;7.180;2023-04-01T06:32:48;10.60;99.90
13251;DHT22;6692;50.710;7.180;2023-04-01T06:35:16;10.60;99.90
13251;DHT22;6692;50.710;7.180;2023-04-01T06:37:34;10.60;99.90
13251;DHT22;6692;50.710;7.180;2023-04-01T06:42:11;10.70;99.90
13251;DHT22;6692;50.710;7.180;2023-04-01T06:44:20;10.60;99.90
13251;DHT22;6692;50.710;7.180;2023-04-01T06:46:30;10.70;99.90
13251;DHT22;6692;50.710;7.180;2023-04-01T06:48:45;10.80;99.90
13251;DHT22;6692;50.710;7.180;2023-04-01T06:52:56;10.80;99.90
13251;DHT22;6692;50.710;7.180;2023-04-01T06:54:55;10.80;99.90
13251;DHT22;6692;50.710;7.180;2023-04-01T06:56:55;10.80;99.90
13251;DHT22;6692;50.710;7.180;2023-04-01T06:59:13;10.90;99.90
13251;DHT22;6692;50.710;7.180;2023-04-01T07:01:14;10.80;99.90
13251;DHT22;6692;50.710;7.180;2023-04-01T07:03:19;10.90;99.90
13251;DHT22;6692;50.710;7.180;2023-04-01T07:05:17;10.90;99.90
13251;DHT22;6692;50.710;7.180;2023-04-01T07:07:34;10.90;99.90
13251;DHT22;6692;50.710;7.180;2023-04-01T07:09:38;10.90;99.90
13251;DHT22;6692;50.710;7.180;2023-04-01T07:11:38;10.90;99.90
13251;DHT22;6692;50.710;7.180;2023-04-01T07:13:41;11.00;99.90
13251;DHT22;6692;50.710;7.180;2023-04-01T07:15:41;11.00;99.90
13251;DHT22;6692;50.710;7.180;2023-04-01T07:17:41;11.10;99.90
13251;DHT22;6692;50.710;7.180;2023-04-01T07:20:03;11.10;99.90
13251;DHT22;6692;50.710;7.180;2023-04-01T07:22:05;11.10;99.90
13251;DHT22;6692;50.710;7.180;2023-04-01T07:24:09;11.10;99.90
13251;DHT22;6692;50.710;7.180;2023-04-01T07:26:22;11.20;99.90
13251;DHT22;6692;50.710;7.180;2023-04-01T07:28:22;11.30;99.90
13251;DHT22;6692;50.710;7.180;2023-04-01T07:30:23;11.40;99.90
13251;DHT22;6692;50.710;7.180;2023-04-01T07:32:34;11.50;99.90
13251;DHT22;6692;50.710;7.180;2023-04-01T07:37:00;11.70;99.90
13251;DHT22;6692;50.710;7.180;2023-04-01T07:39:06;11.70;99.90
13251;DHT22;6692;50.710;7.180;2023-04-01T07:41:13;11.70;99.90
13251;DHT22;6692;50.710;7.180;2023-04-01T07:43:49;11.70;99.90
13251;DHT22;6692;50.710;7.180;2023-04-01T07:45:31;11.60;99.90
13251;DHT22;6692;50.710;7.180;2023-04-01T07:47:48;11.50;99.90
13251;DHT22;6692;50.710;7.180;2023-04-01T07:50:11;11.60;99.90
13251;DHT22;6692;50.710;7.180;2023-04-01T07:52:12;11.50;99.90
13251;DHT22;6692;50.710;7.180;2023-04-01T07:56:30;11.30;99.90
13251;DHT22;6692;50.710;7.180;2023-04-01T08:00:51;11.30;99.90
13251;DHT22;6692;50.710;7.180;2023-04-01T08:03:12;11.30;99.90
13251;DHT22;6692;50.710;7.180;2023-04-01T08:05:30;11.20;99.90
13251;DHT22;6692;50.710;7.180;2023-04-01T08:07:49;11.20;99.90
13251;DHT22;6692;50.710;7.180;2023-04-01T08:11:17;11.30;99.90
13251;DHT22;6692;50.710;7.180;2023-04-01T08:12:37;11.30;99.90
13251;DHT22;6692;50.710;7.180;2023-04-01T08:14:53;11.30;99.90
13251;DHT22;6692;50.710;7.180;2023-04-01T08:17:01;11.40;99.90
13251;DHT22;6692;50.710;7.180;2023-04-01T08:19:01;11.30;99.90
13251;DHT22;6692;50.710;7.180;2023-04-01T08:21:00;11.30;99.90
13251;DHT22;6692;50.710;7.180;2023-04-01T08:23:17;11.30;99.90
13251;DHT22;6692;50.710;7.180;2023-04-01T08:25:17;11.30;99.90
13251;DHT22;6692;50.710;7.180;2023-04-01T08:27:23;11.40;99.90
13251;DHT22;6692;50.710;7.180;2023-04-01T08:29:42;11.40;99.90
13251;DHT22;6692;50.710;7.180;2023-04-01T08:33:54;11.40;99.90
13251;DHT22;6692;50.710;7.180;2023-04-01T08:36:15;11.40;99.90
13251;DHT22;6692;50.710;7.180;2023-04-01T08:38:21;11.40;99.90
13251;DHT22;6692;50.710;7.180;2023-04-01T08:40:48;11.50;99.90
13251;DHT22;6692;50.710;7.180;2023-04-01T08:42:58;11.50;99.90
13251;DHT22;6692;50.710;7.180;2023-04-01T08:45:14;11.50;99.90
13251;DHT22;6692;50.710;7.180;2023-04-01T08:47:23;11.50;99.90
13251;DHT22;6692;50.710;7.180;2023-04-01T08:49:32;11.50;99.90
13251;DHT22;6692;50.710;7.180;2023-04-01T08:51:55;11.60;99.90
13251;DHT22;6692;50.710;7.180;2023-04-01T08:54:04;11.50;99.90
13251;DHT22;6692;50.710;7.180;2023-04-01T08:56:13;11.50;99.90
13251;DHT22;6692;50.710;7.180;2023-04-01T08:58:27;11.50;99.90
13251;DHT22;6692;50.710;7.180;2023-04-01T09:00:32;11.50;99.90
13251;DHT22;6692;50.710;7.180;2023-04-01T09:02:56;11.60;99.90
13251;DHT22;6692;50.710;7.180;2023-04-01T09:11:52;11.70;99.90
13251;DHT22;6692;50.710;7.180;2023-04-01T09:16:46;11.70;99.90
13251;DHT22;6692;50.710;7.180;2023-04-01T09:20:58;11.60;99.90
13251;DHT22;6692;50.710;7.180;2023-04-01T09:23:23;11.60;99.90
13251;DHT22;6692;50.710;7.180;2023-04-01T09:25:26;11.60;99.90
13251;DHT22;6692;50.710;7.180;2023-04-01T09:27:27;11.60;99.90
13251;DHT22;6692;50.710;7.180;2023-04-01T09:29:43;11.60;99.90
13251;DHT22;6692;50.710;7.180;2023-04-01T09:36:38;11.80;99.90
13251;DHT22;6692;50.710;7.180;2023-04-01T09:38:42;11.90;99.90
13251;DHT22;6692;50.710;7.180;2023-04-01T09:45:16;11.70;99.90
13251;DHT22;6692;50.710;7.180;2023-04-01T09:47:29;11.70;99.90
13251;DHT22;6692;50.710;7.180;2023-04-01T09:54:24;11.70;99.90
13251;DHT22;6692;50.710;7.180;2023-04-01T09:56:29;11.70;99.90
13251;DHT22;6692;50.710;7.180;2023-04-01T10:00:56;11.70;99.90
13251;DHT22;6692;50.710;7.180;2023-04-01T10:05:34;11.60;99.90
13251;DHT22;6692;50.710;7.180;2023-04-01T10:10:17;11.60;99.90
13251;DHT22;6692;50.710;7.180;2023-04-01T10:12:17;11.70;99.90
13251;DHT22;6692;50.710;7.180;2023-04-01T10:21:16;11.80;99.90
13251;DHT22;6692;50.710;7.180;2023-04-01T10:23:20;11.70;99.90
13251;DHT22;6692;50.710;7.180;2023-04-01T10:25:42;11.70;99.90
13251;DHT22;6692;50.710;7.180;2023-04-01T10:28:04;11.70;99.90
13251;DHT22;6692;50.710;7.180;2023-04-01T10:34:54;11.60;99.90
13251;DHT22;6692;50.710;7.180;2023-04-01T10:36:52;11.60;99.90
13251;DHT22;6692;50.710;7.180;2023-04-01T10:41:27;11.70;99.90
13251;DHT22;6692;50.710;7.180;2023-04-01T10:43:32;11.90;99.90
13251;DHT22;6692;50.710;7.180;2023-04-01T10:45:57;12.00;99.90
13251;DHT22;6692;50.710;7.180;2023-04-01T10:48:07;12.10;99.90
13251;DHT22;6692;50.710;7.180;2023-04-01T10:50:13;12.10;99.90
13251;DHT22;6692;50.710;7.180;2023-04-01T10:52:23;12.20;99.90
13251;DHT22;6692;50.710;7.180;2023-04-01T10:54:38;12.40;99.90
13251;DHT22;6692;50.710;7.180;2023-04-01T10:56:46;12.50;99.90
13251;DHT22;6692;50.710;7.180;2023-04-01T11:06:22;12.30;99.90
13251;DHT22;6692;50.710;7.180;2023-04-01T11:08:41;12.20;99.90
13251;DHT22;6692;50.710;7.180;2023-04-01T11:10:57;12.20;99.90
13251;DHT22;6692;50.710;7.180;2023-04-01T11:15:42;12.20;99.90
13251;DHT22;6692;50.710;7.180;2023-04-01T11:17:57;12.30;99.90
13251;DHT22;6692;50.710;7.180;2023-04-01T11:20:22;12.30;99.90
13251;DHT22;6692;50.710;7.180;2023-04-01T11:26:54;12.30;99.90
13251;DHT22;6692;50.710;7.180;2023-04-01T11:29:04;12.30;99.90
13251;DHT22;6692;50.710;7.180;2023-04-01T11:33:14;12.40;99.90
13251;DHT22;6692;50.710;7.180;2023-04-01T11:35:52;12.30;99.90
13251;DHT22;6692;50.710;7.180;2023-04-01T11:37:37;12.30;99.90
13251;DHT22;6692;50.710;7.180;2023-04-01T11:41:56;12.00;99.90
13251;DHT22;6692;50.710;7.180;2023-04-01T11:44:07;11.90;99.90
13251;DHT22;6692;50.710;7.180;2023-04-01T11:46:19;12.00;99.90
13251;DHT22;6692;50.710;7.180;2023-04-01T11:51:03;11.90;99.90
13251;DHT22;6692;50.710;7.180;2023-04-01T11:55:53;12.10;99.90
13251;DHT22;6692;50.710;7.180;2023-04-01T11:57:55;12.10;99.90
13251;DHT22;6692;50.710;7.180;2023-04-01T12:00:36;12.10;99.90
13251;DHT22;6692;50.710;7.180;2023-04-01T12:02:29;12.10;99.90
13251;DHT22;6692;50.710;7.180;2023-04-01T12:07:14;12.10;99.90
13251;DHT22;6692;50.710;7.180;2023-04-01T12:09:20;12.10;99.90
13251;DHT22;6692;50.710;7.180;2023-04-01T12:13:52;12.10;99.90
13251;DHT22;6692;50.710;7.180;2023-04-01T12:18:34;12.10;99.90
13251;DHT22;6692;50.710;7.180;2023-04-01T12:20:36;12.10;99.90
13251;DHT22;6692;50.710;7.180;2023-04-01T12:22:44;12.10;99.90
13251;DHT22;6692;50.710;7.180;2023-04-01T12:24:52;12.20;99.90
13251;DHT22;6692;50.710;7.180;2023-04-01T12:26:55;12.20;99.90
13251;DHT22;6692;50.710;7.180;2023-04-01T12:29:03;12.10;99.90
13251;DHT22;6692;50.710;7.180;2023-04-01T12:33:44;12.20;99.90
13251;DHT22;6692;50.710;7.180;2023-04-01T12:35:55;12.20;99.90
13251;DHT22;6692;50.710;7.180;2023-04-01T12:38:16;12.20;99.90
13251;DHT22;6692;50.710;7.180;2023-04-01T12:40:20;12.20;99.90
13251;DHT22;6692;50.710;7.180;2023-04-01T12:42:31;12.40;99.90
13251;DHT22;6692;50.710;7.180;2023-04-01T12:44:38;12.40;99.90
13251;DHT22;6692;50.710;7.180;2023-04-01T12:46:41;12.40;99.90
13251;DHT22;6692;50.710;7.180;2023-04-01T12:49:21;12.50;99.90
13251;DHT22;6692;50.710;7.180;2023-04-01T12:51:22;12.50;99.90
13251;DHT22;6692;50.710;7.180;2023-04-01T12:53:32;12.50;99.90
13251;DHT22;6692;50.710;7.180;2023-04-01T12:55:38;12.50;99.90
13251;DHT22;6692;50.710;7.180;2023-04-01T13:01:27;12.40;99.90
13251;DHT22;6692;50.710;7.180;2023-04-01T13:05:01;12.20;99.90
13251;DHT22;6692;50.710;7.180;2023-04-01T13:09:29;12.10;99.90
13251;DHT22;6692;50.710;7.180;2023-04-01T13:11:40;12.20;99.90
13251;DHT22;6692;50.710;7.180;2023-04-01T13:14:11;12.20;99.90
13251;DHT22;6692;50.710;7.180;2023-04-01T13:16:14;12.20;99.90
13251;DHT22;6692;50.710;7.180;2023-04-01T13:18:21;12.20;99.90
13251;DHT22;6692;50.710;7.180;2023-04-01T13:20:43;12.30;99.90
13251;DHT22;6692;50.710;7.180;2023-04-01T13:22:57;12.30;99.90
13251;DHT22;6692;50.710;7.180;2023-04-01T13:25:10;12.30;99.90
13251;DHT22;6692;50.710;7.180;2023-04-01T13:27:29;12.20;99.90
13251;DHT22;6692;50.710;7.180;2023-04-01T13:29:41;12.20;99.90
13251;DHT22;6692;50.710;7.180;2023-04-01T13:32:22;12.20;99.90
13251;DHT22;6692;50.710;7.180;2023-04-01T13:36:36;12.20;99.90
13251;DHT22;6692;50.710;7.180;2023-04-01T13:39:01;12.20;99.90
13251;DHT22;6692;50.710;7.180;2023-04-01T13:41:27;12.20;99.90
13251;DHT22;6692;50.710;7.180;2023-04-01T13:43:29;12.20;99.90
13251;DHT22;6692;50.710;7.180;2023-04-01T13:45:42;12.30;99.90
13251;DHT22;6692;50.710;7.180;2023-04-01T13:48:58;12.30;99.90
13251;DHT22;6692;50.710;7.180;2023-04-01T13:50:47;12.60;99.90
13251;DHT22;6692;50.710;7.180;2023-04-01T13:52:47;12.60;99.90
13251;DHT22;6692;50.710;7.180;2023-04-01T13:54:55;12.90;99.90
13251;DHT22;6692;50.710;7.180;2023-04-01T13:59:47;13.00;99.90
13251;DHT22;6692;50.710;7.180;2023-04-01T14:01:50;12.90;99.90
13251;DHT22;6692;50.710;7.180;2023-04-01T14:04:27;12.90;99.90
13251;DHT22;6692;50.710;7.180;2023-04-01T14:06:51;12.90;99.90
13251;DHT22;6692;50.710;7.180;2023-04-01T14:08:55;12.80;99.90
13251;DHT22;6692;50.710;7.180;2023-04-01T14:10:58;12.70;99.90
13251;DHT22;6692;50.710;7.180;2023-04-01T14:13:31;12.70;99.90
13251;DHT22;6692;50.710;7.180;2023-04-01T14:17:31;13.00;99.90
13251;DHT22;6692;50.710;7.180;2023-04-01T14:20:04;13.40;99.90
13251;DHT22;6692;50.710;7.180;2023-04-01T14:25:39;13.80;99.90
13251;DHT22;6692;50.710;7.180;2023-04-01T14:31:24;13.70;99.90
13251;DHT22;6692;50.710;7.180;2023-04-01T14:35:38;13.40;99.90
13251;DHT22;6692;50.710;7.180;2023-04-01T14:38:17;13.40;99.90
13251;DHT22;6692;50.710;7.180;2023-04-01T14:42:53;13.30;99.90
13251;DHT22;6692;50.710;7.180;2023-04-01T14:45:12;13.20;99.90
13251;DHT22;6692;50.710;7.180;2023-04-01T14:47:43;13.10;99.90
13251;DHT22;6692;50.710;7.180;2023-04-01T14:49:41;13.10;99.90
13251;DHT22;6692;50.710;7.180;2023-04-01T14:51:41;13.10;99.90
13251;DHT22;6692;50.710;7.180;2023-04-01T14:53:43;13.10;99.90
13251;DHT22;6692;50.710;7.180;2023-04-01T14:55:50;13.00;99.90
13251;DHT22;6692;50.710;7.180;2023-04-01T14:57:58;13.00;99.90
13251;DHT22;6692;50.710;7.180;2023-04-01T15:00:00;12.80;99.90
13251;DHT22;6692;50.710;7.180;2023-04-01T15:02:36;12.70;99.90
13251;DHT22;6692;50.710;7.180;2023-04-01T15:06:49;12.70;99.90
13251;DHT22;6692;50.710;7.180;2023-04-01T15:09:05;12.80;99.90
13251;DHT22;6692;50.710;7.180;2023-04-01T15:11:07;12.80;99.90
13251;DHT22;6692;50.710;7.180;2023-04-01T15:15:29;12.80;99.90
13251;DHT22;6692;50.710;7.180;2023-04-01T15:18:07;12.70;99.90
13251;DHT22;6692;50.710;7.180;2023-04-01T15:22:32;12.60;99.90
13251;DHT22;6692;50.710;7.180;2023-04-01T15:24:56;12.50;99.90
13251;DHT22;6692;50.710;7.180;2023-04-01T15:27:03;12.50;99.90
13251;DHT22;6692;50.710;7.180;2023-04-01T15:29:38;12.40;99.90
13251;DHT22;6692;50.710;7.180;2023-04-01T15:31:40;12.40;99.90
13251;DHT22;6692;50.710;7.180;2023-04-01T15:33:46;12.30;99.90
13251;DHT22;6692;50.710;7.180;2023-04-01T15:35:48;12.30;99.90
13251;DHT22;6692;50.710;7.180;2023-04-01T15:37:55;12.40;99.90
13251;DHT22;6692;50.710;7.180;2023-04-01T15:40:02;12.30;99.90
13251;DHT22;6692;50.710;7.180;2023-04-01T15:44:26;12.30;99.90
13251;DHT22;6692;50.710;7.180;2023-04-01T15:46:36;12.40;99.90